sensor_id;sensor_type;location;lat;lon;timestamp;P1;durP1;ratioP1;P2;durP2;ratioP2
56381;SDS011;50261;51.150;4.470;2022-10-31T00:00:53;12.55;;;6.95;;
56381;SDS011;50261;51.150;4.470;2022-10-31T00:03:18;14.52;;;7.72;;
56381;SDS011;50261;51.150;4.470;2022-10-31T00:05:45;13.30;;;8.65;;
56381;SDS011;50261;51.150;4.470;2022-10-31T00:08:11;10.85;;;7.32;;
56381;SDS011;50261;51.150;4.470;2022-10-31T00:10:37;15.00;;;8.63;;
56381;SDS011;50261;51.150;4.470;2022-10-31T00:13:03;13.75;;;7.28;;
56381;SDS011;50261;51.150;4.470;2022-10-31T00:15:28;12.88;;;8.35;;
56381;SDS011;50261;51.150;4.470;2022-10-31T00:17:54;14.50;;;8.65;;
56381;SDS011;50261;51.150;4.470;2022-10-31T00:20:19;17.42;;;8.20;;
56381;SDS011;50261;51.150;4.470;2022-10-31T00:22:45;16.05;;;8.30;;
56381;SDS011;50261;51.150;4.470;2022-10-31T00:25:11;12.60;;;8.82;;
56381;SDS011;50261;51.150;4.470;2022-10-31T00:27:36;11.43;;;7.50;;
56381;SDS011;50261;51.150;4.470;2022-10-31T00:30:02;15.27;;;7.97;;
56381;SDS011;50261;51.150;4.470;2022-10-31T00:32:28;16.00;;;8.50;;
56381;SDS011;50261;51.150;4.470;2022-10-31T00:34:55;14.73;;;9.15;;
56381;SDS011;50261;51.150;4.470;2022-10-31T00:37:20;13.43;;;8.75;;
56381;SDS011;50261;51.150;4.470;2022-10-31T00:39:46;12.55;;;9.02;;
56381;SDS011;50261;51.150;4.470;2022-10-31T00:42:14;12.70;;;8.07;;
56381;SDS011;50261;51.150;4.470;2022-10-31T00:44:42;10.52;;;8.05;;
56381;SDS011;50261;51.150;4.470;2022-10-31T00:47:08;15.25;;;8.48;;
56381;SDS011;50261;51.150;4.470;2022-10-31T00:49:33;11.98;;;7.95;;
56381;SDS011;50261;51.150;4.470;2022-10-31T00:51:59;11.65;;;7.88;;
56381;SDS011;50261;51.150;4.470;2022-10-31T00:54:25;14.20;;;8.30;;
56381;SDS011;50261;51.150;4.470;2022-10-31T00:56:50;15.88;;;8.48;;
56381;SDS011;50261;51.150;4.470;2022-10-31T00:59:16;11.43;;;7.68;;
56381;SDS011;50261;51.150;4.470;2022-10-31T01:01:42;13.80;;;7.65;;
56381;SDS011;50261;51.150;4.470;2022-10-31T01:04:08;15.15;;;8.10;;
56381;SDS011;50261;51.150;4.470;2022-10-31T01:06:33;11.73;;;8.13;;
56381;SDS011;50261;51.150;4.470;2022-10-31T01:08:59;14.75;;;7.45;;
56381;SDS011;50261;51.150;4.470;2022-10-31T01:11:25;14.90;;;7.80;;
56381;SDS011;50261;51.150;4.470;2022-10-31T01:13:51;12.55;;;7.78;;
56381;SDS011;50261;51.150;4.470;2022-10-31T01:16:18;13.50;;;7.50;;
56381;SDS011;50261;51.150;4.470;2022-10-31T01:18:44;11.60;;;7.90;;
56381;SDS011;50261;51.150;4.470;2022-10-31T01:21:11;10.73;;;8.05;;
56381;SDS011;50261;51.150;4.470;2022-10-31T01:23:37;10.80;;;8.20;;
56381;SDS011;50261;51.150;4.470;2022-10-31T01:26:08;13.15;;;7.97;;
56381;SDS011;50261;51.150;4.470;2022-10-31T01:28:38;12.15;;;8.13;;
56381;SDS011;50261;51.150;4.470;2022-10-31T01:31:05;15.63;;;7.75;;
56381;SDS011;50261;51.150;4.470;2022-10-31T01:33:33;13.27;;;8.05;;
56381;SDS011;50261;51.150;4.470;2022-10-31T01:35:59;14.98;;;7.55;;
56381;SDS011;50261;51.150;4.470;2022-10-31T01:38:24;9.70;;;7.40;;
56381;SDS011;50261;51.150;4.470;2022-10-31T01:40:50;13.40;;;7.68;;
56381;SDS011;50261;51.150;4.470;2022-10-31T01:43:16;13.52;;;7.35;;
56381;SDS011;50261;51.150;4.470;2022-10-31T01:45:42;16.55;;;7.63;;
56381;SDS011;50261;51.150;4.470;2022-10-31T01:48:15;10.73;;;7.88;;
56381;SDS011;50261;51.150;4.470;2022-10-31T01:50:42;10.57;;;7.90;;
56381;SDS011;50261;51.150;4.470;2022-10-31T01:53:09;11.45;;;7.30;;
56381;SDS011;50261;51.150;4.470;2022-10-31T01:55:38;11.73;;;7.85;;
56381;SDS011;50261;51.150;4.470;2022-10-31T01:58:09;15.38;;;7.70;;
56381;SDS011;50261;51.150;4.470;2022-10-31T02:00:36;11.98;;;7.53;;
56381;SDS011;50261;51.150;4.470;2022-10-31T02:03:02;14.90;;;8.35;;
56381;SDS011;50261;51.150;4.470;2022-10-31T02:05:28;16.17;;;8.13;;
56381;SDS011;50261;51.150;4.470;2022-10-31T02:10:39;11.60;;;7.93;;
56381;SDS011;50261;51.150;4.470;2022-10-31T02:13:07;16.40;;;8.65;;
56381;SDS011;50261;51.150;4.470;2022-10-31T02:15:38;19.02;;;8.77;;
56381;SDS011;50261;51.150;4.470;2022-10-31T02:18:05;12.38;;;8.30;;
56381;SDS011;50261;51.150;4.470;2022-10-31T02:21:14;17.80;;;8.85;;
56381;SDS011;50261;51.150;4.470;2022-10-31T02:23:26;14.38;;;8.40;;
56381;SDS011;50261;51.150;4.470;2022-10-31T02:36:11;16.50;;;8.43;;
56381;SDS011;50261;51.150;4.470;2022-10-31T02:38:47;14.68;;;7.70;;
56381;SDS011;50261;51.150;4.470;2022-10-31T02:47:08;18.73;;;8.43;;
56381;SDS011;50261;51.150;4.470;2022-10-31T02:49:29;12.60;;;8.02;;
56381;SDS011;50261;51.150;4.470;2022-10-31T02:51:57;13.82;;;8.07;;
56381;SDS011;50261;51.150;4.470;2022-10-31T02:54:23;11.13;;;7.45;;
56381;SDS011;50261;51.150;4.470;2022-10-31T02:56:56;12.45;;;7.85;;
56381;SDS011;50261;51.150;4.470;2022-10-31T02:59:24;12.57;;;8.35;;
56381;SDS011;50261;51.150;4.470;2022-10-31T03:07:19;11.77;;;7.95;;
56381;SDS011;50261;51.150;4.470;2022-10-31T03:09:48;16.48;;;8.10;;
56381;SDS011;50261;51.150;4.470;2022-10-31T03:12:38;13.45;;;7.40;;
56381;SDS011;50261;51.150;4.470;2022-10-31T03:15:16;14.40;;;7.03;;
56381;SDS011;50261;51.150;4.470;2022-10-31T03:17:56;12.73;;;7.72;;
56381;SDS011;50261;51.150;4.470;2022-10-31T03:20:28;13.10;;;7.82;;
56381;SDS011;50261;51.150;4.470;2022-10-31T03:22:55;10.45;;;6.97;;
56381;SDS011;50261;51.150;4.470;2022-10-31T03:25:22;11.68;;;7.90;;
56381;SDS011;50261;51.150;4.470;2022-10-31T03:27:48;11.38;;;7.97;;
56381;SDS011;50261;51.150;4.470;2022-10-31T03:30:15;14.43;;;7.68;;
56381;SDS011;50261;51.150;4.470;2022-10-31T03:32:56;15.63;;;7.45;;
56381;SDS011;50261;51.150;4.470;2022-10-31T03:35:24;13.73;;;8.30;;
56381;SDS011;50261;51.150;4.470;2022-10-31T03:37:52;14.63;;;7.90;;
56381;SDS011;50261;51.150;4.470;2022-10-31T03:40:19;11.90;;;7.30;;
56381;SDS011;50261;51.150;4.470;2022-10-31T03:42:57;15.00;;;7.55;;
56381;SDS011;50261;51.150;4.470;2022-10-31T03:45:25;12.30;;;7.45;;
56381;SDS011;50261;51.150;4.470;2022-10-31T03:47:52;13.05;;;7.35;;
56381;SDS011;50261;51.150;4.470;2022-10-31T03:50:20;12.93;;;7.78;;
56381;SDS011;50261;51.150;4.470;2022-10-31T03:52:53;14.50;;;8.00;;
56381;SDS011;50261;51.150;4.470;2022-10-31T03:55:24;10.83;;;7.00;;
56381;SDS011;50261;51.150;4.470;2022-10-31T03:58:27;11.17;;;7.00;;
56381;SDS011;50261;51.150;4.470;2022-10-31T04:00:45;17.50;;;7.70;;
56381;SDS011;50261;51.150;4.470;2022-10-31T04:03:16;11.10;;;6.95;;
56381;SDS011;50261;51.150;4.470;2022-10-31T04:05:45;15.33;;;6.80;;
56381;SDS011;50261;51.150;4.470;2022-10-31T04:08:13;11.43;;;7.40;;
56381;SDS011;50261;51.150;4.470;2022-10-31T04:10:41;15.82;;;7.72;;
56381;SDS011;50261;51.150;4.470;2022-10-31T04:13:10;10.07;;;6.82;;
56381;SDS011;50261;51.150;4.470;2022-10-31T04:16:03;14.40;;;7.53;;
56381;SDS011;50261;51.150;4.470;2022-10-31T04:18:30;11.32;;;6.63;;
56381;SDS011;50261;51.150;4.470;2022-10-31T04:21:03;15.40;;;7.72;;
56381;SDS011;50261;51.150;4.470;2022-10-31T04:23:29;11.90;;;7.63;;
56381;SDS011;50261;51.150;4.470;2022-10-31T04:25:57;10.98;;;7.65;;
56381;SDS011;50261;51.150;4.470;2022-10-31T04:28:23;14.43;;;7.85;;
56381;SDS011;50261;51.150;4.470;2022-10-31T04:30:50;10.95;;;7.60;;
56381;SDS011;50261;51.150;4.470;2022-10-31T04:33:16;12.25;;;7.93;;
56381;SDS011;50261;51.150;4.470;2022-10-31T04:35:44;12.00;;;7.30;;
56381;SDS011;50261;51.150;4.470;2022-10-31T04:38:10;13.02;;;7.57;;
56381;SDS011;50261;51.150;4.470;2022-10-31T04:40:37;13.52;;;7.82;;
56381;SDS011;50261;51.150;4.470;2022-10-31T04:43:21;14.90;;;7.78;;
56381;SDS011;50261;51.150;4.470;2022-10-31T04:45:47;21.23;;;7.55;;
56381;SDS011;50261;51.150;4.470;2022-10-31T04:48:13;11.13;;;8.32;;
56381;SDS011;50261;51.150;4.470;2022-10-31T04:50:41;13.35;;;8.40;;
56381;SDS011;50261;51.150;4.470;2022-10-31T04:53:06;19.05;;;9.25;;
56381;SDS011;50261;51.150;4.470;2022-10-31T04:55:40;18.17;;;9.17;;
56381;SDS011;50261;51.150;4.470;2022-10-31T04:58:18;14.88;;;8.45;;
56381;SDS011;50261;51.150;4.470;2022-10-31T05:00:44;12.20;;;8.65;;
56381;SDS011;50261;51.150;4.470;2022-10-31T05:03:11;14.13;;;9.05;;
56381;SDS011;50261;51.150;4.470;2022-10-31T05:05:37;24.17;;;9.45;;
56381;SDS011;50261;51.150;4.470;2022-10-31T05:08:03;14.48;;;8.98;;
56381;SDS011;50261;51.150;4.470;2022-10-31T05:10:30;15.60;;;9.18;;
56381;SDS011;50261;51.150;4.470;2022-10-31T05:12:59;19.50;;;9.30;;
56381;SDS011;50261;51.150;4.470;2022-10-31T05:15:44;17.27;;;9.73;;
56381;SDS011;50261;51.150;4.470;2022-10-31T05:18:38;16.40;;;9.43;;
56381;SDS011;50261;51.150;4.470;2022-10-31T05:21:39;16.95;;;9.18;;
56381;SDS011;50261;51.150;4.470;2022-10-31T05:24:06;15.07;;;9.85;;
56381;SDS011;50261;51.150;4.470;2022-10-31T05:26:33;13.15;;;8.93;;
56381;SDS011;50261;51.150;4.470;2022-10-31T05:28:59;15.48;;;9.13;;
56381;SDS011;50261;51.150;4.470;2022-10-31T05:31:24;15.50;;;8.82;;
56381;SDS011;50261;51.150;4.470;2022-10-31T05:33:52;14.85;;;9.32;;
56381;SDS011;50261;51.150;4.470;2022-10-31T05:36:36;15.30;;;9.27;;
56381;SDS011;50261;51.150;4.470;2022-10-31T05:39:08;17.17;;;10.18;;
56381;SDS011;50261;51.150;4.470;2022-10-31T05:41:39;13.60;;;8.30;;
56381;SDS011;50261;51.150;4.470;2022-10-31T05:44:12;18.40;;;8.57;;
56381;SDS011;50261;51.150;4.470;2022-10-31T05:46:51;13.68;;;8.55;;
56381;SDS011;50261;51.150;4.470;2022-10-31T05:49:35;11.93;;;8.15;;
56381;SDS011;50261;51.150;4.470;2022-10-31T05:52:19;13.82;;;8.23;;
56381;SDS011;50261;51.150;4.470;2022-10-31T05:54:52;14.55;;;8.25;;
56381;SDS011;50261;51.150;4.470;2022-10-31T05:57:18;13.02;;;8.30;;
56381;SDS011;50261;51.150;4.470;2022-10-31T05:59:44;13.88;;;9.45;;
56381;SDS011;50261;51.150;4.470;2022-10-31T06:02:10;17.00;;;8.63;;
56381;SDS011;50261;51.150;4.470;2022-10-31T06:04:54;13.85;;;8.07;;
56381;SDS011;50261;51.150;4.470;2022-10-31T06:07:21;11.23;;;7.72;;
56381;SDS011;50261;51.150;4.470;2022-10-31T06:09:46;13.32;;;8.48;;
56381;SDS011;50261;51.150;4.470;2022-10-31T06:12:12;10.73;;;7.85;;
56381;SDS011;50261;51.150;4.470;2022-10-31T06:15:04;11.23;;;7.63;;
56381;SDS011;50261;51.150;4.470;2022-10-31T06:17:31;14.70;;;8.10;;
56381;SDS011;50261;51.150;4.470;2022-10-31T06:20:20;12.15;;;7.38;;
56381;SDS011;50261;51.150;4.470;2022-10-31T06:22:55;10.70;;;7.45;;
56381;SDS011;50261;51.150;4.470;2022-10-31T06:25:21;14.00;;;7.82;;
56381;SDS011;50261;51.150;4.470;2022-10-31T06:27:48;9.45;;;6.97;;
56381;SDS011;50261;51.150;4.470;2022-10-31T06:30:14;15.40;;;8.15;;
56381;SDS011;50261;51.150;4.470;2022-10-31T06:32:41;10.82;;;7.65;;
56381;SDS011;50261;51.150;4.470;2022-10-31T06:35:08;10.93;;;8.18;;
56381;SDS011;50261;51.150;4.470;2022-10-31T06:37:35;13.13;;;8.10;;
56381;SDS011;50261;51.150;4.470;2022-10-31T06:40:11;14.20;;;8.32;;
56381;SDS011;50261;51.150;4.470;2022-10-31T06:42:58;12.65;;;7.45;;
56381;SDS011;50261;51.150;4.470;2022-10-31T06:45:24;13.68;;;8.15;;
56381;SDS011;50261;51.150;4.470;2022-10-31T06:48:19;11.23;;;7.78;;
56381;SDS011;50261;51.150;4.470;2022-10-31T06:51:07;10.57;;;7.90;;
56381;SDS011;50261;51.150;4.470;2022-10-31T06:53:33;10.30;;;7.80;;
56381;SDS011;50261;51.150;4.470;2022-10-31T06:55:59;9.70;;;7.68;;
56381;SDS011;50261;51.150;4.470;2022-10-31T06:58:25;13.77;;;7.80;;
56381;SDS011;50261;51.150;4.470;2022-10-31T07:00:55;12.18;;;8.23;;
56381;SDS011;50261;51.150;4.470;2022-10-31T07:03:20;15.45;;;8.75;;
56381;SDS011;50261;51.150;4.470;2022-10-31T07:05:47;11.07;;;7.57;;
56381;SDS011;50261;51.150;4.470;2022-10-31T07:08:14;10.40;;;8.50;;
56381;SDS011;50261;51.150;4.470;2022-10-31T07:10:40;11.85;;;8.43;;
56381;SDS011;50261;51.150;4.470;2022-10-31T07:13:13;15.98;;;8.50;;
56381;SDS011;50261;51.150;4.470;2022-10-31T07:15:45;11.10;;;7.78;;
56381;SDS011;50261;51.150;4.470;2022-10-31T07:18:12;13.63;;;9.50;;
56381;SDS011;50261;51.150;4.470;2022-10-31T07:20:38;17.98;;;9.80;;
56381;SDS011;50261;51.150;4.470;2022-10-31T07:23:04;14.35;;;9.32;;
56381;SDS011;50261;51.150;4.470;2022-10-31T07:25:31;14.88;;;11.40;;
56381;SDS011;50261;51.150;4.470;2022-10-31T07:28:10;11.23;;;9.43;;
56381;SDS011;50261;51.150;4.470;2022-10-31T07:30:37;14.45;;;10.82;;
56381;SDS011;50261;51.150;4.470;2022-10-31T07:33:03;14.10;;;9.70;;
56381;SDS011;50261;51.150;4.470;2022-10-31T07:36:07;16.20;;;9.23;;
56381;SDS011;50261;51.150;4.470;2022-10-31T07:38:33;17.23;;;8.82;;
56381;SDS011;50261;51.150;4.470;2022-10-31T07:41:02;14.50;;;9.80;;
56381;SDS011;50261;51.150;4.470;2022-10-31T07:43:31;12.30;;;8.50;;
56381;SDS011;50261;51.150;4.470;2022-10-31T07:46:16;14.10;;;8.77;;
56381;SDS011;50261;51.150;4.470;2022-10-31T07:49:00;14.20;;;9.00;;
56381;SDS011;50261;51.150;4.470;2022-10-31T07:51:44;14.70;;;9.88;;
56381;SDS011;50261;51.150;4.470;2022-10-31T07:54:28;13.23;;;9.68;;
56381;SDS011;50261;51.150;4.470;2022-10-31T07:56:54;12.07;;;9.52;;
56381;SDS011;50261;51.150;4.470;2022-10-31T07:59:20;16.58;;;9.85;;
56381;SDS011;50261;51.150;4.470;2022-10-31T08:01:47;16.33;;;10.13;;
56381;SDS011;50261;51.150;4.470;2022-10-31T08:04:30;12.57;;;10.02;;
56381;SDS011;50261;51.150;4.470;2022-10-31T08:07:15;15.90;;;9.75;;
56381;SDS011;50261;51.150;4.470;2022-10-31T08:09:45;15.90;;;9.63;;
56381;SDS011;50261;51.150;4.470;2022-10-31T08:12:18;15.07;;;10.13;;
56381;SDS011;50261;51.150;4.470;2022-10-31T08:14:45;16.23;;;9.15;;
56381;SDS011;50261;51.150;4.470;2022-10-31T08:17:12;18.05;;;10.18;;
56381;SDS011;50261;51.150;4.470;2022-10-31T08:19:45;14.57;;;9.85;;
56381;SDS011;50261;51.150;4.470;2022-10-31T08:22:13;16.85;;;10.80;;
56381;SDS011;50261;51.150;4.470;2022-10-31T08:24:39;18.13;;;11.02;;
56381;SDS011;50261;51.150;4.470;2022-10-31T08:27:05;16.90;;;10.52;;
56381;SDS011;50261;51.150;4.470;2022-10-31T08:29:31;15.07;;;10.27;;
56381;SDS011;50261;51.150;4.470;2022-10-31T08:31:57;17.88;;;10.27;;
56381;SDS011;50261;51.150;4.470;2022-10-31T08:37:25;15.85;;;11.60;;
56381;SDS011;50261;51.150;4.470;2022-10-31T08:39:53;18.23;;;11.57;;
56381;SDS011;50261;51.150;4.470;2022-10-31T08:42:20;15.85;;;12.10;;
56381;SDS011;50261;51.150;4.470;2022-10-31T08:44:46;16.65;;;11.93;;
56381;SDS011;50261;51.150;4.470;2022-10-31T08:47:12;18.52;;;12.57;;
56381;SDS011;50261;51.150;4.470;2022-10-31T08:49:38;15.05;;;11.45;;
56381;SDS011;50261;51.150;4.470;2022-10-31T08:52:03;21.77;;;12.55;;
56381;SDS011;50261;51.150;4.470;2022-10-31T08:54:34;18.05;;;11.20;;
56381;SDS011;50261;51.150;4.470;2022-10-31T08:57:18;18.50;;;12.10;;
56381;SDS011;50261;51.150;4.470;2022-10-31T08:59:46;17.10;;;10.85;;
56381;SDS011;50261;51.150;4.470;2022-10-31T09:02:11;18.13;;;10.98;;
56381;SDS011;50261;51.150;4.470;2022-10-31T09:04:37;17.20;;;11.77;;
56381;SDS011;50261;51.150;4.470;2022-10-31T09:07:04;19.02;;;11.90;;
56381;SDS011;50261;51.150;4.470;2022-10-31T09:09:30;20.02;;;12.38;;
56381;SDS011;50261;51.150;4.470;2022-10-31T09:11:56;17.60;;;11.93;;
56381;SDS011;50261;51.150;4.470;2022-10-31T09:14:22;18.45;;;11.70;;
56381;SDS011;50261;51.150;4.470;2022-10-31T09:17:18;20.48;;;12.15;;
56381;SDS011;50261;51.150;4.470;2022-10-31T09:20:07;20.92;;;13.00;;
56381;SDS011;50261;51.150;4.470;2022-10-31T09:22:34;19.27;;;12.70;;
56381;SDS011;50261;51.150;4.470;2022-10-31T09:25:00;19.00;;;13.90;;
56381;SDS011;50261;51.150;4.470;2022-10-31T09:27:26;17.58;;;12.75;;
56381;SDS011;50261;51.150;4.470;2022-10-31T09:29:56;21.55;;;13.55;;
56381;SDS011;50261;51.150;4.470;2022-10-31T09:32:22;21.83;;;14.35;;
56381;SDS011;50261;51.150;4.470;2022-10-31T09:34:47;25.13;;;14.25;;
56381;SDS011;50261;51.150;4.470;2022-10-31T09:37:18;19.40;;;13.75;;
56381;SDS011;50261;51.150;4.470;2022-10-31T09:39:44;21.23;;;13.93;;
56381;SDS011;50261;51.150;4.470;2022-10-31T09:53:13;20.95;;;14.50;;
56381;SDS011;50261;51.150;4.470;2022-10-31T09:55:44;20.70;;;14.52;;
56381;SDS011;50261;51.150;4.470;2022-10-31T09:58:14;21.23;;;13.73;;
56381;SDS011;50261;51.150;4.470;2022-10-31T10:00:41;21.77;;;13.80;;
56381;SDS011;50261;51.150;4.470;2022-10-31T10:03:12;22.95;;;14.93;;
56381;SDS011;50261;51.150;4.470;2022-10-31T10:05:45;21.38;;;14.13;;
56381;SDS011;50261;51.150;4.470;2022-10-31T10:08:20;22.33;;;14.45;;
56381;SDS011;50261;51.150;4.470;2022-10-31T10:16:21;21.70;;;14.00;;
56381;SDS011;50261;51.150;4.470;2022-10-31T10:24:35;20.98;;;14.48;;
56381;SDS011;50261;51.150;4.470;2022-10-31T10:29:52;21.98;;;14.98;;
56381;SDS011;50261;51.150;4.470;2022-10-31T10:32:24;18.80;;;14.40;;
56381;SDS011;50261;51.150;4.470;2022-10-31T10:34:55;25.38;;;14.90;;
56381;SDS011;50261;51.150;4.470;2022-10-31T10:37:33;23.52;;;15.20;;
56381;SDS011;50261;51.150;4.470;2022-10-31T10:40:06;22.60;;;15.18;;
56381;SDS011;50261;51.150;4.470;2022-10-31T10:42:33;26.75;;;16.00;;
56381;SDS011;50261;51.150;4.470;2022-10-31T10:45:18;23.83;;;14.77;;
56381;SDS011;50261;51.150;4.470;2022-10-31T10:48:08;23.05;;;15.20;;
56381;SDS011;50261;51.150;4.470;2022-10-31T10:50:38;20.07;;;13.83;;
56381;SDS011;50261;51.150;4.470;2022-10-31T10:53:17;23.20;;;15.00;;
56381;SDS011;50261;51.150;4.470;2022-10-31T10:58:22;26.95;;;16.48;;
56381;SDS011;50261;51.150;4.470;2022-10-31T11:00:48;28.55;;;15.82;;
56381;SDS011;50261;51.150;4.470;2022-10-31T11:03:15;25.85;;;16.02;;
56381;SDS011;50261;51.150;4.470;2022-10-31T11:05:47;22.80;;;16.15;;
56381;SDS011;50261;51.150;4.470;2022-10-31T11:08:26;29.05;;;16.17;;
56381;SDS011;50261;51.150;4.470;2022-10-31T11:10:56;26.27;;;16.17;;
56381;SDS011;50261;51.150;4.470;2022-10-31T11:13:22;27.80;;;17.15;;
56381;SDS011;50261;51.150;4.470;2022-10-31T11:15:50;26.40;;;17.48;;
56381;SDS011;50261;51.150;4.470;2022-10-31T11:18:20;30.33;;;18.52;;
56381;SDS011;50261;51.150;4.470;2022-10-31T11:20:51;26.17;;;18.88;;
56381;SDS011;50261;51.150;4.470;2022-10-31T11:23:18;27.23;;;18.80;;
56381;SDS011;50261;51.150;4.470;2022-10-31T11:25:47;28.25;;;18.25;;
56381;SDS011;50261;51.150;4.470;2022-10-31T11:28:13;29.77;;;19.50;;
56381;SDS011;50261;51.150;4.470;2022-10-31T11:30:43;34.97;;;21.25;;
56381;SDS011;50261;51.150;4.470;2022-10-31T11:33:16;34.22;;;20.40;;
56381;SDS011;50261;51.150;4.470;2022-10-31T11:35:42;30.27;;;18.20;;
56381;SDS011;50261;51.150;4.470;2022-10-31T11:38:12;30.27;;;18.90;;
56381;SDS011;50261;51.150;4.470;2022-10-31T11:40:41;30.10;;;17.88;;
56381;SDS011;50261;51.150;4.470;2022-10-31T11:43:16;29.80;;;18.65;;
56381;SDS011;50261;51.150;4.470;2022-10-31T11:45:43;28.83;;;19.02;;
56381;SDS011;50261;51.150;4.470;2022-10-31T11:48:15;30.33;;;18.20;;
56381;SDS011;50261;51.150;4.470;2022-10-31T11:50:41;28.45;;;17.95;;
56381;SDS011;50261;51.150;4.470;2022-10-31T11:53:14;28.30;;;17.90;;
56381;SDS011;50261;51.150;4.470;2022-10-31T11:55:41;29.70;;;17.30;;
56381;SDS011;50261;51.150;4.470;2022-10-31T11:58:23;29.73;;;17.55;;
56381;SDS011;50261;51.150;4.470;2022-10-31T12:00:53;25.48;;;17.05;;
56381;SDS011;50261;51.150;4.470;2022-10-31T12:05:45;26.17;;;17.05;;
56381;SDS011;50261;51.150;4.470;2022-10-31T12:08:12;26.25;;;15.52;;
56381;SDS011;50261;51.150;4.470;2022-10-31T12:14:27;28.20;;;16.33;;
56381;SDS011;50261;51.150;4.470;2022-10-31T12:17:00;26.90;;;17.27;;
56381;SDS011;50261;51.150;4.470;2022-10-31T12:19:35;23.65;;;16.88;;
56381;SDS011;50261;51.150;4.470;2022-10-31T12:30:02;24.67;;;16.23;;
56381;SDS011;50261;51.150;4.470;2022-10-31T12:32:38;25.73;;;16.98;;
56381;SDS011;50261;51.150;4.470;2022-10-31T12:37:56;26.95;;;16.63;;
56381;SDS011;50261;51.150;4.470;2022-10-31T12:43:05;24.00;;;15.70;;
56381;SDS011;50261;51.150;4.470;2022-10-31T12:48:19;27.30;;;16.00;;
56381;SDS011;50261;51.150;4.470;2022-10-31T13:04:21;32.40;;;17.52;;
56381;SDS011;50261;51.150;4.470;2022-10-31T13:09:17;26.83;;;16.67;;
56381;SDS011;50261;51.150;4.470;2022-10-31T13:11:45;33.05;;;15.95;;
56381;SDS011;50261;51.150;4.470;2022-10-31T13:16:46;32.90;;;16.30;;
56381;SDS011;50261;51.150;4.470;2022-10-31T13:21:55;25.95;;;15.30;;
56381;SDS011;50261;51.150;4.470;2022-10-31T13:27:12;20.23;;;12.10;;
56381;SDS011;50261;51.150;4.470;2022-10-31T13:29:40;20.83;;;11.43;;
56381;SDS011;50261;51.150;4.470;2022-10-31T13:32:08;23.23;;;11.02;;
56381;SDS011;50261;51.150;4.470;2022-10-31T13:34:35;19.83;;;11.35;;
56381;SDS011;50261;51.150;4.470;2022-10-31T13:37:12;24.42;;;11.65;;
56381;SDS011;50261;51.150;4.470;2022-10-31T13:42:19;23.73;;;10.23;;
56381;SDS011;50261;51.150;4.470;2022-10-31T13:44:46;19.75;;;10.65;;
56381;SDS011;50261;51.150;4.470;2022-10-31T13:47:20;14.68;;;8.98;;
56381;SDS011;50261;51.150;4.470;2022-10-31T13:49:46;15.35;;;9.27;;
56381;SDS011;50261;51.150;4.470;2022-10-31T13:54:41;17.95;;;8.20;;
56381;SDS011;50261;51.150;4.470;2022-10-31T13:57:12;16.58;;;7.47;;
56381;SDS011;50261;51.150;4.470;2022-10-31T14:02:15;14.02;;;6.85;;
56381;SDS011;50261;51.150;4.470;2022-10-31T14:04:46;14.25;;;6.82;;
56381;SDS011;50261;51.150;4.470;2022-10-31T14:07:17;15.82;;;7.25;;
56381;SDS011;50261;51.150;4.470;2022-10-31T14:14:48;15.10;;;6.78;;
56381;SDS011;50261;51.150;4.470;2022-10-31T14:17:48;12.45;;;6.20;;
56381;SDS011;50261;51.150;4.470;2022-10-31T14:22:32;13.68;;;6.72;;
56381;SDS011;50261;51.150;4.470;2022-10-31T14:24:58;18.38;;;6.63;;
56381;SDS011;50261;51.150;4.470;2022-10-31T14:29:49;14.10;;;6.53;;
56381;SDS011;50261;51.150;4.470;2022-10-31T14:32:25;14.05;;;6.70;;
56381;SDS011;50261;51.150;4.470;2022-10-31T14:52:56;14.07;;;7.07;;
56381;SDS011;50261;51.150;4.470;2022-10-31T14:55:23;16.15;;;7.47;;
56381;SDS011;50261;51.150;4.470;2022-10-31T14:57:50;13.15;;;7.57;;
56381;SDS011;50261;51.150;4.470;2022-10-31T15:00:17;16.58;;;7.50;;
56381;SDS011;50261;51.150;4.470;2022-10-31T15:02:54;16.25;;;7.05;;
56381;SDS011;50261;51.150;4.470;2022-10-31T15:05:22;15.68;;;6.90;;
56381;SDS011;50261;51.150;4.470;2022-10-31T15:07:55;17.70;;;7.57;;
56381;SDS011;50261;51.150;4.470;2022-10-31T15:12:47;16.88;;;6.75;;
56381;SDS011;50261;51.150;4.470;2022-10-31T15:15:13;14.60;;;7.13;;
56381;SDS011;50261;51.150;4.470;2022-10-31T15:17:43;12.43;;;6.97;;
56381;SDS011;50261;51.150;4.470;2022-10-31T15:20:11;14.27;;;7.25;;
56381;SDS011;50261;51.150;4.470;2022-10-31T15:22:37;19.10;;;6.90;;
56381;SDS011;50261;51.150;4.470;2022-10-31T15:25:03;13.13;;;6.70;;
56381;SDS011;50261;51.150;4.470;2022-10-31T15:27:29;11.98;;;6.90;;
56381;SDS011;50261;51.150;4.470;2022-10-31T15:29:55;13.25;;;7.32;;
56381;SDS011;50261;51.150;4.470;2022-10-31T15:32:22;13.93;;;6.75;;
56381;SDS011;50261;51.150;4.470;2022-10-31T15:34:49;14.80;;;6.47;;
56381;SDS011;50261;51.150;4.470;2022-10-31T15:37:16;18.52;;;6.55;;
56381;SDS011;50261;51.150;4.470;2022-10-31T15:39:42;13.32;;;6.30;;
56381;SDS011;50261;51.150;4.470;2022-10-31T15:42:41;11.65;;;5.88;;
56381;SDS011;50261;51.150;4.470;2022-10-31T15:45:01;16.48;;;6.45;;
56381;SDS011;50261;51.150;4.470;2022-10-31T15:47:26;10.85;;;6.60;;
56381;SDS011;50261;51.150;4.470;2022-10-31T15:49:55;14.65;;;6.60;;
56381;SDS011;50261;51.150;4.470;2022-10-31T15:52:24;15.00;;;6.65;;
56381;SDS011;50261;51.150;4.470;2022-10-31T15:54:53;12.48;;;6.38;;
56381;SDS011;50261;51.150;4.470;2022-10-31T15:57:21;14.68;;;6.50;;
56381;SDS011;50261;51.150;4.470;2022-10-31T15:59:47;15.30;;;6.25;;
56381;SDS011;50261;51.150;4.470;2022-10-31T16:02:13;18.70;;;7.35;;
56381;SDS011;50261;51.150;4.470;2022-10-31T16:07:37;16.20;;;7.03;;
56381;SDS011;50261;51.150;4.470;2022-10-31T16:10:22;15.10;;;7.03;;
56381;SDS011;50261;51.150;4.470;2022-10-31T16:12:49;15.48;;;6.60;;
56381;SDS011;50261;51.150;4.470;2022-10-31T16:15:15;15.05;;;7.43;;
56381;SDS011;50261;51.150;4.470;2022-10-31T16:17:42;18.65;;;7.13;;
56381;SDS011;50261;51.150;4.470;2022-10-31T16:20:16;17.60;;;8.02;;
56381;SDS011;50261;51.150;4.470;2022-10-31T16:22:46;19.45;;;8.35;;
56381;SDS011;50261;51.150;4.470;2022-10-31T16:25:17;13.75;;;7.97;;
56381;SDS011;50261;51.150;4.470;2022-10-31T16:27:50;21.02;;;8.73;;
56381;SDS011;50261;51.150;4.470;2022-10-31T16:35:51;20.33;;;9.95;;
56381;SDS011;50261;51.150;4.470;2022-10-31T16:38:17;20.33;;;10.05;;
56381;SDS011;50261;51.150;4.470;2022-10-31T16:40:42;19.38;;;11.20;;
56381;SDS011;50261;51.150;4.470;2022-10-31T16:43:09;19.23;;;10.65;;
56381;SDS011;50261;51.150;4.470;2022-10-31T16:45:36;24.50;;;10.95;;
56381;SDS011;50261;51.150;4.470;2022-10-31T16:48:05;21.20;;;10.98;;
56381;SDS011;50261;51.150;4.470;2022-10-31T16:50:31;20.42;;;10.93;;
56381;SDS011;50261;51.150;4.470;2022-10-31T16:52:57;24.17;;;12.40;;
56381;SDS011;50261;51.150;4.470;2022-10-31T16:55:23;22.30;;;11.98;;
56381;SDS011;50261;51.150;4.470;2022-10-31T16:57:52;19.55;;;11.52;;
56381;SDS011;50261;51.150;4.470;2022-10-31T17:00:20;27.50;;;12.85;;
56381;SDS011;50261;51.150;4.470;2022-10-31T17:02:46;26.67;;;14.02;;
56381;SDS011;50261;51.150;4.470;2022-10-31T17:05:14;24.52;;;13.32;;
56381;SDS011;50261;51.150;4.470;2022-10-31T17:07:40;23.15;;;13.13;;
56381;SDS011;50261;51.150;4.470;2022-10-31T17:10:07;23.48;;;13.63;;
56381;SDS011;50261;51.150;4.470;2022-10-31T17:12:32;23.13;;;13.15;;
56381;SDS011;50261;51.150;4.470;2022-10-31T17:14:59;25.98;;;13.63;;